sensor_id;sensor_type;location;lat;lon;timestamp;P1;durP1;ratioP1;P2;durP2;ratioP2
11048;SDS011;5577;42.706;23.160;2022-12-29T00:00:48;55.03;;;34.60;;
11048;SDS011;5577;42.706;23.160;2022-12-29T00:03:32;49.67;;;34.23;;
11048;SDS011;5577;42.706;23.160;2022-12-29T00:06:16;45.60;;;31.00;;
11048;SDS011;5577;42.706;23.160;2022-12-29T00:09:00;46.10;;;32.40;;
11048;SDS011;5577;42.706;23.160;2022-12-29T00:11:44;43.93;;;31.03;;
11048;SDS011;5577;42.706;23.160;2022-12-29T00:14:28;43.53;;;32.13;;
11048;SDS011;5577;42.706;23.160;2022-12-29T00:17:30;45.97;;;32.23;;
11048;SDS011;5577;42.706;23.160;2022-12-29T00:20:14;45.30;;;31.37;;
11048;SDS011;5577;42.706;23.160;2022-12-29T00:23:17;45.10;;;30.50;;
11048;SDS011;5577;42.706;23.160;2022-12-29T00:26:20;45.03;;;30.40;;
11048;SDS011;5577;42.706;23.160;2022-12-29T00:29:23;42.60;;;29.27;;
11048;SDS011;5577;42.706;23.160;2022-12-29T00:32:26;41.73;;;29.87;;
11048;SDS011;5577;42.706;23.160;2022-12-29T00:35:30;44.77;;;30.57;;
11048;SDS011;5577;42.706;23.160;2022-12-29T00:38:19;46.10;;;30.03;;
11048;SDS011;5577;42.706;23.160;2022-12-29T00:41:23;41.73;;;29.13;;
11048;SDS011;5577;42.706;23.160;2022-12-29T00:44:26;46.73;;;30.93;;
11048;SDS011;5577;42.706;23.160;2022-12-29T00:47:10;40.63;;;29.30;;
11048;SDS011;5577;42.706;23.160;2022-12-29T00:49:54;42.57;;;30.17;;
11048;SDS011;5577;42.706;23.160;2022-12-29T00:52:38;43.27;;;30.37;;
11048;SDS011;5577;42.706;23.160;2022-12-29T00:55:22;42.37;;;29.37;;
11048;SDS011;5577;42.706;23.160;2022-12-29T00:58:06;42.93;;;29.10;;
11048;SDS011;5577;42.706;23.160;2022-12-29T01:00:50;42.53;;;29.27;;
11048;SDS011;5577;42.706;23.160;2022-12-29T01:03:35;41.67;;;29.80;;
11048;SDS011;5577;42.706;23.160;2022-12-29T01:06:19;42.60;;;29.10;;
11048;SDS011;5577;42.706;23.160;2022-12-29T01:09:04;41.63;;;28.93;;
11048;SDS011;5577;42.706;23.160;2022-12-29T01:12:07;41.60;;;28.07;;
11048;SDS011;5577;42.706;23.160;2022-12-29T01:14:52;39.40;;;28.57;;
11048;SDS011;5577;42.706;23.160;2022-12-29T01:17:36;39.20;;;28.67;;
11048;SDS011;5577;42.706;23.160;2022-12-29T01:20:20;41.23;;;29.03;;
11048;SDS011;5577;42.706;23.160;2022-12-29T01:23:04;40.90;;;28.23;;
11048;SDS011;5577;42.706;23.160;2022-12-29T01:25:48;38.83;;;27.67;;
11048;SDS011;5577;42.706;23.160;2022-12-29T01:28:32;41.27;;;28.80;;
11048;SDS011;5577;42.706;23.160;2022-12-29T01:31:16;37.97;;;26.93;;
11048;SDS011;5577;42.706;23.160;2022-12-29T01:34:00;40.47;;;27.80;;
11048;SDS011;5577;42.706;23.160;2022-12-29T01:36:44;38.83;;;28.03;;
11048;SDS011;5577;42.706;23.160;2022-12-29T01:39:28;41.23;;;27.50;;
11048;SDS011;5577;42.706;23.160;2022-12-29T01:42:16;40.83;;;28.83;;
11048;SDS011;5577;42.706;23.160;2022-12-29T01:45:15;39.17;;;27.47;;
11048;SDS011;5577;42.706;23.160;2022-12-29T01:48:02;38.47;;;26.73;;
11048;SDS011;5577;42.706;23.160;2022-12-29T01:50:50;39.03;;;27.10;;
11048;SDS011;5577;42.706;23.160;2022-12-29T01:53:36;42.90;;;28.73;;
11048;SDS011;5577;42.706;23.160;2022-12-29T01:56:20;37.50;;;27.27;;
11048;SDS011;5577;42.706;23.160;2022-12-29T01:59:06;40.13;;;27.47;;
11048;SDS011;5577;42.706;23.160;2022-12-29T02:01:56;38.27;;;27.80;;
11048;SDS011;5577;42.706;23.160;2022-12-29T02:04:40;39.83;;;26.60;;
11048;SDS011;5577;42.706;23.160;2022-12-29T02:07:29;40.20;;;26.73;;
11048;SDS011;5577;42.706;23.160;2022-12-29T02:10:13;39.87;;;28.23;;
11048;SDS011;5577;42.706;23.160;2022-12-29T02:12:58;49.03;;;32.73;;
11048;SDS011;5577;42.706;23.160;2022-12-29T02:21:45;46.10;;;31.80;;
11048;SDS011;5577;42.706;23.160;2022-12-29T02:25:00;52.03;;;37.43;;
11048;SDS011;5577;42.706;23.160;2022-12-29T02:37:41;37.23;;;25.13;;
11048;SDS011;5577;42.706;23.160;2022-12-29T02:46:21;40.53;;;27.40;;
11048;SDS011;5577;42.706;23.160;2022-12-29T02:52:18;41.33;;;27.27;;
11048;SDS011;5577;42.706;23.160;2022-12-29T02:55:10;39.13;;;26.73;;
11048;SDS011;5577;42.706;23.160;2022-12-29T03:16:44;39.50;;;26.90;;
11048;SDS011;5577;42.706;23.160;2022-12-29T03:19:32;39.93;;;27.70;;
11048;SDS011;5577;42.706;23.160;2022-12-29T03:22:21;39.93;;;26.83;;
11048;SDS011;5577;42.706;23.160;2022-12-29T03:28:05;44.43;;;29.30;;
11048;SDS011;5577;42.706;23.160;2022-12-29T03:30:53;48.00;;;31.50;;
11048;SDS011;5577;42.706;23.160;2022-12-29T03:33:39;40.33;;;27.57;;
11048;SDS011;5577;42.706;23.160;2022-12-29T03:37:00;39.47;;;28.20;;
11048;SDS011;5577;42.706;23.160;2022-12-29T03:39:38;39.43;;;26.60;;
11048;SDS011;5577;42.706;23.160;2022-12-29T03:42:23;37.93;;;26.27;;
11048;SDS011;5577;42.706;23.160;2022-12-29T03:45:10;46.27;;;28.73;;
11048;SDS011;5577;42.706;23.160;2022-12-29T03:47:54;39.13;;;27.23;;
11048;SDS011;5577;42.706;23.160;2022-12-29T03:50:38;42.97;;;27.30;;
11048;SDS011;5577;42.706;23.160;2022-12-29T03:53:22;39.33;;;26.93;;
11048;SDS011;5577;42.706;23.160;2022-12-29T03:56:07;41.73;;;27.23;;
11048;SDS011;5577;42.706;23.160;2022-12-29T03:58:50;42.07;;;26.53;;
11048;SDS011;5577;42.706;23.160;2022-12-29T04:01:34;36.13;;;25.67;;
11048;SDS011;5577;42.706;23.160;2022-12-29T04:04:18;34.83;;;24.47;;
11048;SDS011;5577;42.706;23.160;2022-12-29T04:07:02;36.27;;;24.17;;
11048;SDS011;5577;42.706;23.160;2022-12-29T04:09:46;36.17;;;25.10;;
11048;SDS011;5577;42.706;23.160;2022-12-29T04:12:30;36.27;;;25.53;;
11048;SDS011;5577;42.706;23.160;2022-12-29T04:15:14;39.80;;;25.30;;
11048;SDS011;5577;42.706;23.160;2022-12-29T04:17:58;39.77;;;25.97;;
11048;SDS011;5577;42.706;23.160;2022-12-29T04:20:43;37.83;;;26.47;;
11048;SDS011;5577;42.706;23.160;2022-12-29T04:23:43;42.33;;;26.73;;
11048;SDS011;5577;42.706;23.160;2022-12-29T04:26:27;44.00;;;27.60;;
11048;SDS011;5577;42.706;23.160;2022-12-29T04:29:10;37.67;;;26.40;;
11048;SDS011;5577;42.706;23.160;2022-12-29T04:31:54;43.53;;;28.03;;
11048;SDS011;5577;42.706;23.160;2022-12-29T04:34:38;51.73;;;33.57;;
11048;SDS011;5577;42.706;23.160;2022-12-29T04:37:22;49.90;;;31.60;;
11048;SDS011;5577;42.706;23.160;2022-12-29T04:40:06;44.80;;;30.33;;
11048;SDS011;5577;42.706;23.160;2022-12-29T04:42:51;44.73;;;29.27;;
11048;SDS011;5577;42.706;23.160;2022-12-29T04:45:35;41.90;;;29.40;;
11048;SDS011;5577;42.706;23.160;2022-12-29T04:48:20;43.17;;;29.17;;
11048;SDS011;5577;42.706;23.160;2022-12-29T04:51:04;43.43;;;29.40;;
11048;SDS011;5577;42.706;23.160;2022-12-29T04:53:48;45.47;;;29.13;;
11048;SDS011;5577;42.706;23.160;2022-12-29T04:56:32;43.03;;;28.87;;
11048;SDS011;5577;42.706;23.160;2022-12-29T04:59:16;40.23;;;27.73;;
11048;SDS011;5577;42.706;23.160;2022-12-29T05:02:00;43.47;;;28.10;;
11048;SDS011;5577;42.706;23.160;2022-12-29T05:04:44;43.80;;;28.57;;
11048;SDS011;5577;42.706;23.160;2022-12-29T05:07:29;40.17;;;27.37;;
11048;SDS011;5577;42.706;23.160;2022-12-29T05:10:14;39.30;;;27.73;;
11048;SDS011;5577;42.706;23.160;2022-12-29T05:12:58;41.37;;;28.23;;
11048;SDS011;5577;42.706;23.160;2022-12-29T05:15:47;45.57;;;28.70;;
11048;SDS011;5577;42.706;23.160;2022-12-29T05:18:34;40.37;;;27.90;;
11048;SDS011;5577;42.706;23.160;2022-12-29T05:21:18;43.83;;;27.77;;
11048;SDS011;5577;42.706;23.160;2022-12-29T05:24:02;41.33;;;27.90;;
11048;SDS011;5577;42.706;23.160;2022-12-29T05:26:46;40.40;;;27.60;;
11048;SDS011;5577;42.706;23.160;2022-12-29T05:29:30;44.00;;;29.37;;
11048;SDS011;5577;42.706;23.160;2022-12-29T05:32:14;41.80;;;29.67;;
11048;SDS011;5577;42.706;23.160;2022-12-29T05:34:58;42.57;;;27.77;;
11048;SDS011;5577;42.706;23.160;2022-12-29T05:37:42;42.87;;;28.60;;
11048;SDS011;5577;42.706;23.160;2022-12-29T05:40:26;38.80;;;27.63;;
11048;SDS011;5577;42.706;23.160;2022-12-29T05:43:10;38.70;;;26.03;;
11048;SDS011;5577;42.706;23.160;2022-12-29T05:45:54;42.67;;;27.60;;
11048;SDS011;5577;42.706;23.160;2022-12-29T05:48:39;36.73;;;25.83;;
11048;SDS011;5577;42.706;23.160;2022-12-29T05:55:03;37.77;;;26.57;;
11048;SDS011;5577;42.706;23.160;2022-12-29T05:57:47;42.10;;;25.50;;
11048;SDS011;5577;42.706;23.160;2022-12-29T06:00:31;33.40;;;24.80;;
11048;SDS011;5577;42.706;23.160;2022-12-29T06:03:15;39.63;;;26.20;;
11048;SDS011;5577;42.706;23.160;2022-12-29T06:05:59;44.20;;;30.60;;
11048;SDS011;5577;42.706;23.160;2022-12-29T06:08:43;34.83;;;26.17;;
11048;SDS011;5577;42.706;23.160;2022-12-29T06:11:27;38.23;;;26.37;;
11048;SDS011;5577;42.706;23.160;2022-12-29T06:14:11;42.07;;;27.70;;
11048;SDS011;5577;42.706;23.160;2022-12-29T06:16:55;34.63;;;26.37;;
11048;SDS011;5577;42.706;23.160;2022-12-29T06:19:39;40.37;;;27.60;;
11048;SDS011;5577;42.706;23.160;2022-12-29T06:22:23;42.50;;;27.20;;
11048;SDS011;5577;42.706;23.160;2022-12-29T06:25:07;42.47;;;27.93;;
11048;SDS011;5577;42.706;23.160;2022-12-29T06:27:52;43.93;;;28.80;;
11048;SDS011;5577;42.706;23.160;2022-12-29T06:30:36;45.13;;;28.27;;
11048;SDS011;5577;42.706;23.160;2022-12-29T06:33:20;41.77;;;28.47;;
11048;SDS011;5577;42.706;23.160;2022-12-29T06:36:04;41.80;;;29.20;;
11048;SDS011;5577;42.706;23.160;2022-12-29T06:38:49;43.90;;;28.83;;
11048;SDS011;5577;42.706;23.160;2022-12-29T06:41:36;43.87;;;29.57;;
11048;SDS011;5577;42.706;23.160;2022-12-29T06:44:20;44.27;;;30.13;;
11048;SDS011;5577;42.706;23.160;2022-12-29T06:47:05;43.13;;;29.60;;
11048;SDS011;5577;42.706;23.160;2022-12-29T06:49:49;45.63;;;30.80;;
11048;SDS011;5577;42.706;23.160;2022-12-29T06:52:33;43.83;;;29.70;;
11048;SDS011;5577;42.706;23.160;2022-12-29T06:55:17;45.83;;;30.40;;
11048;SDS011;5577;42.706;23.160;2022-12-29T06:58:01;45.30;;;30.60;;
11048;SDS011;5577;42.706;23.160;2022-12-29T07:00:45;44.37;;;29.10;;
11048;SDS011;5577;42.706;23.160;2022-12-29T07:03:30;44.00;;;30.47;;
11048;SDS011;5577;42.706;23.160;2022-12-29T07:06:13;41.42;;;33.65;;
11048;SDS011;5577;42.706;23.160;2022-12-29T07:08:57;39.97;;;29.50;;
11048;SDS011;5577;42.706;23.160;2022-12-29T07:11:42;37.77;;;27.97;;
11048;SDS011;5577;42.706;23.160;2022-12-29T07:14:26;35.07;;;25.40;;
11048;SDS011;5577;42.706;23.160;2022-12-29T07:17:10;33.47;;;23.30;;
11048;SDS011;5577;42.706;23.160;2022-12-29T07:19:54;30.60;;;22.30;;
11048;SDS011;5577;42.706;23.160;2022-12-29T07:22:38;34.03;;;23.30;;
11048;SDS011;5577;42.706;23.160;2022-12-29T07:25:22;36.30;;;25.20;;
11048;SDS011;5577;42.706;23.160;2022-12-29T07:28:06;38.97;;;25.07;;
11048;SDS011;5577;42.706;23.160;2022-12-29T07:30:50;35.80;;;24.90;;
11048;SDS011;5577;42.706;23.160;2022-12-29T07:33:34;35.67;;;25.63;;
11048;SDS011;5577;42.706;23.160;2022-12-29T07:36:18;36.53;;;25.87;;
11048;SDS011;5577;42.706;23.160;2022-12-29T07:39:02;36.80;;;26.30;;
11048;SDS011;5577;42.706;23.160;2022-12-29T07:41:46;38.20;;;27.27;;
11048;SDS011;5577;42.706;23.160;2022-12-29T07:44:30;37.57;;;26.50;;
11048;SDS011;5577;42.706;23.160;2022-12-29T07:47:14;39.67;;;26.50;;
11048;SDS011;5577;42.706;23.160;2022-12-29T07:49:58;40.80;;;27.83;;
11048;SDS011;5577;42.706;23.160;2022-12-29T07:52:42;39.80;;;26.33;;
11048;SDS011;5577;42.706;23.160;2022-12-29T07:55:26;39.50;;;26.63;;
11048;SDS011;5577;42.706;23.160;2022-12-29T07:58:10;37.77;;;24.83;;
11048;SDS011;5577;42.706;23.160;2022-12-29T08:00:54;37.03;;;25.07;;
11048;SDS011;5577;42.706;23.160;2022-12-29T08:03:39;34.77;;;24.13;;
11048;SDS011;5577;42.706;23.160;2022-12-29T08:06:24;34.00;;;23.50;;
11048;SDS011;5577;42.706;23.160;2022-12-29T08:09:08;33.57;;;24.60;;
11048;SDS011;5577;42.706;23.160;2022-12-29T08:11:53;37.70;;;26.97;;
11048;SDS011;5577;42.706;23.160;2022-12-29T08:14:37;37.53;;;27.03;;
11048;SDS011;5577;42.706;23.160;2022-12-29T08:17:21;36.07;;;25.37;;
11048;SDS011;5577;42.706;23.160;2022-12-29T08:20:05;36.00;;;24.00;;
11048;SDS011;5577;42.706;23.160;2022-12-29T08:22:50;31.33;;;22.73;;
11048;SDS011;5577;42.706;23.160;2022-12-29T08:25:34;31.07;;;22.97;;
11048;SDS011;5577;42.706;23.160;2022-12-29T08:28:18;34.00;;;23.97;;
11048;SDS011;5577;42.706;23.160;2022-12-29T08:31:02;32.53;;;23.17;;
11048;SDS011;5577;42.706;23.160;2022-12-29T08:33:47;30.33;;;21.77;;
11048;SDS011;5577;42.706;23.160;2022-12-29T08:36:31;32.77;;;23.50;;
11048;SDS011;5577;42.706;23.160;2022-12-29T08:39:15;30.07;;;22.10;;
11048;SDS011;5577;42.706;23.160;2022-12-29T08:41:59;31.33;;;22.40;;
11048;SDS011;5577;42.706;23.160;2022-12-29T08:44:43;30.17;;;22.00;;
11048;SDS011;5577;42.706;23.160;2022-12-29T08:47:27;26.80;;;20.57;;
11048;SDS011;5577;42.706;23.160;2022-12-29T08:50:11;26.43;;;20.40;;
11048;SDS011;5577;42.706;23.160;2022-12-29T08:52:55;31.27;;;20.77;;
11048;SDS011;5577;42.706;23.160;2022-12-29T08:55:39;28.10;;;20.23;;
11048;SDS011;5577;42.706;23.160;2022-12-29T08:58:23;26.20;;;19.60;;
11048;SDS011;5577;42.706;23.160;2022-12-29T09:01:08;27.67;;;18.90;;
11048;SDS011;5577;42.706;23.160;2022-12-29T09:03:53;31.70;;;20.60;;
11048;SDS011;5577;42.706;23.160;2022-12-29T09:06:38;26.37;;;18.07;;
11048;SDS011;5577;42.706;23.160;2022-12-29T09:09:22;22.10;;;17.00;;
11048;SDS011;5577;42.706;23.160;2022-12-29T09:12:06;25.03;;;17.90;;
11048;SDS011;5577;42.706;23.160;2022-12-29T09:14:50;25.17;;;17.43;;
11048;SDS011;5577;42.706;23.160;2022-12-29T09:17:34;24.07;;;16.53;;
11048;SDS011;5577;42.706;23.160;2022-12-29T09:20:24;22.77;;;17.23;;
11048;SDS011;5577;42.706;23.160;2022-12-29T09:23:08;23.53;;;17.20;;
11048;SDS011;5577;42.706;23.160;2022-12-29T09:25:52;23.13;;;16.97;;
11048;SDS011;5577;42.706;23.160;2022-12-29T09:28:37;22.70;;;16.60;;
11048;SDS011;5577;42.706;23.160;2022-12-29T09:31:21;21.73;;;17.13;;
11048;SDS011;5577;42.706;23.160;2022-12-29T09:34:05;25.33;;;17.33;;
11048;SDS011;5577;42.706;23.160;2022-12-29T09:36:49;23.33;;;17.00;;
11048;SDS011;5577;42.706;23.160;2022-12-29T09:39:33;24.47;;;17.97;;
11048;SDS011;5577;42.706;23.160;2022-12-29T09:42:25;26.10;;;18.03;;
11048;SDS011;5577;42.706;23.160;2022-12-29T09:45:17;25.77;;;18.00;;
11048;SDS011;5577;42.706;23.160;2022-12-29T09:48:13;26.53;;;18.60;;
11048;SDS011;5577;42.706;23.160;2022-12-29T09:51:16;24.90;;;17.80;;
11048;SDS011;5577;42.706;23.160;2022-12-29T09:57:45;25.93;;;17.67;;
11048;SDS011;5577;42.706;23.160;2022-12-29T10:00:48;21.47;;;15.73;;
11048;SDS011;5577;42.706;23.160;2022-12-29T10:03:44;24.33;;;17.43;;
11048;SDS011;5577;42.706;23.160;2022-12-29T10:06:51;21.03;;;16.17;;
11048;SDS011;5577;42.706;23.160;2022-12-29T10:10:03;25.20;;;17.90;;
11048;SDS011;5577;42.706;23.160;2022-12-29T10:12:53;23.10;;;16.33;;
11048;SDS011;5577;42.706;23.160;2022-12-29T10:19:33;25.77;;;17.13;;
11048;SDS011;5577;42.706;23.160;2022-12-29T10:22:42;26.70;;;18.10;;
11048;SDS011;5577;42.706;23.160;2022-12-29T10:25:12;24.33;;;18.67;;
11048;SDS011;5577;42.706;23.160;2022-12-29T10:28:01;26.07;;;18.20;;
11048;SDS011;5577;42.706;23.160;2022-12-29T10:30:53;28.17;;;19.60;;
11048;SDS011;5577;42.706;23.160;2022-12-29T10:33:40;28.60;;;19.60;;
11048;SDS011;5577;42.706;23.160;2022-12-29T10:36:35;26.37;;;18.23;;
11048;SDS011;5577;42.706;23.160;2022-12-29T10:39:33;24.70;;;17.90;;
11048;SDS011;5577;42.706;23.160;2022-12-29T10:42:37;25.67;;;18.27;;
11048;SDS011;5577;42.706;23.160;2022-12-29T10:45:30;23.17;;;17.67;;
11048;SDS011;5577;42.706;23.160;2022-12-29T10:48:36;26.43;;;18.60;;
11048;SDS011;5577;42.706;23.160;2022-12-29T10:51:38;22.47;;;17.17;;
11048;SDS011;5577;42.706;23.160;2022-12-29T10:54:27;24.43;;;17.10;;
11048;SDS011;5577;42.706;23.160;2022-12-29T10:57:24;22.90;;;17.23;;
11048;SDS011;5577;42.706;23.160;2022-12-29T11:00:13;23.20;;;17.63;;
11048;SDS011;5577;42.706;23.160;2022-12-29T11:06:09;23.83;;;17.87;;
11048;SDS011;5577;42.706;23.160;2022-12-29T11:09:02;23.33;;;17.60;;
11048;SDS011;5577;42.706;23.160;2022-12-29T11:12:00;24.73;;;18.33;;
11048;SDS011;5577;42.706;23.160;2022-12-29T11:14:43;25.37;;;19.67;;
11048;SDS011;5577;42.706;23.160;2022-12-29T11:17:27;25.83;;;19.30;;
11048;SDS011;5577;42.706;23.160;2022-12-29T11:23:22;27.93;;;19.80;;
11048;SDS011;5577;42.706;23.160;2022-12-29T11:32:00;27.40;;;20.00;;
11048;SDS011;5577;42.706;23.160;2022-12-29T11:34:56;26.50;;;20.00;;
11048;SDS011;5577;42.706;23.160;2022-12-29T11:37:44;27.43;;;19.43;;
11048;SDS011;5577;42.706;23.160;2022-12-29T11:40:28;31.83;;;21.27;;
11048;SDS011;5577;42.706;23.160;2022-12-29T11:43:32;26.00;;;18.97;;
11048;SDS011;5577;42.706;23.160;2022-12-29T11:46:25;26.20;;;18.83;;
11048;SDS011;5577;42.706;23.160;2022-12-29T11:49:13;25.60;;;18.57;;
11048;SDS011;5577;42.706;23.160;2022-12-29T11:52:06;27.43;;;19.10;;
11048;SDS011;5577;42.706;23.160;2022-12-29T11:54:50;24.53;;;18.00;;
11048;SDS011;5577;42.706;23.160;2022-12-29T11:57:36;26.37;;;19.20;;
11048;SDS011;5577;42.706;23.160;2022-12-29T12:00:24;24.33;;;18.97;;
11048;SDS011;5577;42.706;23.160;2022-12-29T12:03:17;29.80;;;20.50;;
11048;SDS011;5577;42.706;23.160;2022-12-29T12:06:07;27.27;;;19.57;;
11048;SDS011;5577;42.706;23.160;2022-12-29T12:08:58;26.30;;;19.03;;
11048;SDS011;5577;42.706;23.160;2022-12-29T12:11:49;26.60;;;19.50;;
11048;SDS011;5577;42.706;23.160;2022-12-29T12:14:38;28.27;;;18.50;;
11048;SDS011;5577;42.706;23.160;2022-12-29T12:17:47;26.13;;;19.37;;
11048;SDS011;5577;42.706;23.160;2022-12-29T12:20:56;29.13;;;19.00;;
11048;SDS011;5577;42.706;23.160;2022-12-29T12:33:04;31.27;;;20.93;;
11048;SDS011;5577;42.706;23.160;2022-12-29T12:36:22;28.50;;;20.77;;
11048;SDS011;5577;42.706;23.160;2022-12-29T12:57:40;40.10;;;24.83;;
11048;SDS011;5577;42.706;23.160;2022-12-29T13:00:32;33.77;;;22.40;;
11048;SDS011;5577;42.706;23.160;2022-12-29T13:03:46;29.33;;;21.67;;
11048;SDS011;5577;42.706;23.160;2022-12-29T13:06:41;33.07;;;21.70;;
11048;SDS011;5577;42.706;23.160;2022-12-29T13:10:02;33.83;;;21.07;;
11048;SDS011;5577;42.706;23.160;2022-12-29T13:15:56;28.53;;;20.70;;
11048;SDS011;5577;42.706;23.160;2022-12-29T13:28:22;35.13;;;24.67;;
11048;SDS011;5577;42.706;23.160;2022-12-29T13:34:09;34.07;;;24.27;;
11048;SDS011;5577;42.706;23.160;2022-12-29T13:37:17;35.17;;;23.33;;
11048;SDS011;5577;42.706;23.160;2022-12-29T13:40:10;35.70;;;24.00;;
11048;SDS011;5577;42.706;23.160;2022-12-29T13:42:58;34.20;;;22.57;;
11048;SDS011;5577;42.706;23.160;2022-12-29T13:45:43;33.23;;;23.77;;
11048;SDS011;5577;42.706;23.160;2022-12-29T13:51:56;34.17;;;24.07;;
11048;SDS011;5577;42.706;23.160;2022-12-29T14:04:16;30.73;;;21.97;;
11048;SDS011;5577;42.706;23.160;2022-12-29T14:07:15;38.53;;;22.57;;
11048;SDS011;5577;42.706;23.160;2022-12-29T14:10:01;66.40;;;36.07;;
11048;SDS011;5577;42.706;23.160;2022-12-29T14:12:45;36.57;;;25.40;;
11048;SDS011;5577;42.706;23.160;2022-12-29T14:15:31;35.10;;;24.93;;
11048;SDS011;5577;42.706;23.160;2022-12-29T14:27:43;42.43;;;26.50;;
11048;SDS011;5577;42.706;23.160;2022-12-29T14:36:53;46.53;;;29.33;;
11048;SDS011;5577;42.706;23.160;2022-12-29T14:39:41;45.93;;;28.43;;
11048;SDS011;5577;42.706;23.160;2022-12-29T14:42:27;46.70;;;27.80;;
11048;SDS011;5577;42.706;23.160;2022-12-29T14:47:58;41.70;;;29.07;;
11048;SDS011;5577;42.706;23.160;2022-12-29T14:50:43;54.97;;;35.93;;
11048;SDS011;5577;42.706;23.160;2022-12-29T14:56:28;68.37;;;43.63;;
11048;SDS011;5577;42.706;23.160;2022-12-29T14:59:14;71.17;;;46.70;;
11048;SDS011;5577;42.706;23.160;2022-12-29T15:02:04;63.87;;;41.57;;
11048;SDS011;5577;42.706;23.160;2022-12-29T15:05:00;158.33;;;100.03;;
11048;SDS011;5577;42.706;23.160;2022-12-29T15:07:46;93.77;;;55.70;;
11048;SDS011;5577;42.706;23.160;2022-12-29T15:10:36;150.83;;;70.07;;
11048;SDS011;5577;42.706;23.160;2022-12-29T15:13:33;38.47;;;26.80;;
11048;SDS011;5577;42.706;23.160;2022-12-29T15:16:31;42.67;;;27.97;;
11048;SDS011;5577;42.706;23.160;2022-12-29T15:19:23;56.40;;;38.77;;
11048;SDS011;5577;42.706;23.160;2022-12-29T15:22:08;85.97;;;54.60;;
11048;SDS011;5577;42.706;23.160;2022-12-29T15:24:53;43.67;;;30.47;;
11048;SDS011;5577;42.706;23.160;2022-12-29T15:27:39;44.43;;;31.80;;
11048;SDS011;5577;42.706;23.160;2022-12-29T15:30:23;44.50;;;31.70;;
11048;SDS011;5577;42.706;23.160;2022-12-29T15:33:17;60.40;;;38.63;;
11048;SDS011;5577;42.706;23.160;2022-12-29T15:36:03;83.07;;;46.07;;
11048;SDS011;5577;42.706;23.160;2022-12-29T15:38:53;68.57;;;41.53;;
11048;SDS011;5577;42.706;23.160;2022-12-29T15:41:40;72.87;;;43.40;;
11048;SDS011;5577;42.706;23.160;2022-12-29T15:44:43;72.47;;;43.47;;
11048;SDS011;5577;42.706;23.160;2022-12-29T15:47:29;63.83;;;41.23;;
11048;SDS011;5577;42.706;23.160;2022-12-29T15:50:22;64.77;;;41.30;;
11048;SDS011;5577;42.706;23.160;2022-12-29T15:53:10;77.10;;;46.60;;
11048;SDS011;5577;42.706;23.160;2022-12-29T15:55:59;97.00;;;59.10;;
11048;SDS011;5577;42.706;23.160;2022-12-29T15:58:50;92.60;;;56.23;;
11048;SDS011;5577;42.706;23.160;2022-12-29T16:01:35;174.53;;;96.10;;
11048;SDS011;5577;42.706;23.160;2022-12-29T16:04:21;132.27;;;76.30;;
11048;SDS011;5577;42.706;23.160;2022-12-29T16:07:22;126.10;;;71.27;;
11048;SDS011;5577;42.706;23.160;2022-12-29T16:10:26;110.70;;;63.53;;
11048;SDS011;5577;42.706;23.160;2022-12-29T16:16:27;92.97;;;54.80;;
11048;SDS011;5577;42.706;23.160;2022-12-29T16:19:26;77.00;;;45.50;;
11048;SDS011;5577;42.706;23.160;2022-12-29T16:22:15;81.87;;;58.67;;
11048;SDS011;5577;42.706;23.160;2022-12-29T16:25:15;85.50;;;54.13;;
11048;SDS011;5577;42.706;23.160;2022-12-29T16:28:03;73.10;;;46.63;;
11048;SDS011;5577;42.706;23.160;2022-12-29T16:31:05;68.33;;;43.97;;
11048;SDS011;5577;42.706;23.160;2022-12-29T16:33:51;75.57;;;47.87;;
11048;SDS011;5577;42.706;23.160;2022-12-29T16:36:40;71.70;;;47.77;;
11048;SDS011;5577;42.706;23.160;2022-12-29T16:39:36;82.90;;;52.90;;
11048;SDS011;5577;42.706;23.160;2022-12-29T16:50:49;83.10;;;52.90;;
11048;SDS011;5577;42.706;23.160;2022-12-29T16:53:34;84.67;;;54.13;;
11048;SDS011;5577;42.706;23.160;2022-12-29T16:56:21;86.67;;;53.30;;
11048;SDS011;5577;42.706;23.160;2022-12-29T17:02:13;69.73;;;47.17;;
11048;SDS011;5577;42.706;23.160;2022-12-29T17:04:59;83.90;;;53.77;;
11048;SDS011;5577;42.706;23.160;2022-12-29T17:07:43;74.47;;;49.40;;
11048;SDS011;5577;42.706;23.160;2022-12-29T17:10:28;59.73;;;38.27;;
11048;SDS011;5577;42.706;23.160;2022-12-29T17:13:47;77.30;;;47.60;;
11048;SDS011;5577;42.706;23.160;2022-12-29T17:16:31;65.63;;;42.07;;
11048;SDS011;5577;42.706;23.160;2022-12-29T17:19:16;98.67;;;53.10;;
11048;SDS011;5577;42.706;23.160;2022-12-29T17:22:02;109.33;;;56.27;;
11048;SDS011;5577;42.706;23.160;2022-12-29T17:24:53;106.43;;;63.57;;
11048;SDS011;5577;42.706;23.160;2022-12-29T17:30:27;116.27;;;60.97;;
11048;SDS011;5577;42.706;23.160;2022-12-29T17:33:14;80.17;;;48.93;;
11048;SDS011;5577;42.706;23.160;2022-12-29T17:36:00;79.67;;;50.03;;
11048;SDS011;5577;42.706;23.160;2022-12-29T17:38:44;91.70;;;57.70;;
11048;SDS011;5577;42.706;23.160;2022-12-29T17:41:29;97.93;;;61.63;;
11048;SDS011;5577;42.706;23.160;2022-12-29T17:44:15;74.00;;;47.93;;
11048;SDS011;5577;42.706;23.160;2022-12-29T17:47:01;84.43;;;52.80;;
11048;SDS011;5577;42.706;23.160;2022-12-29T17:49:45;69.23;;;44.67;;
11048;SDS011;5577;42.706;23.160;2022-12-29T17:52:29;70.23;;;44.47;;
11048;SDS011;5577;42.706;23.160;2022-12-29T17:55:16;61.87;;;41.50;;
11048;SDS011;5577;42.706;23.160;2022-12-29T17:58:07;74.00;;;47.90;;
11048;SDS011;5577;42.706;23.160;2022-12-29T18:01:00;62.83;;;41.60;;
11048;SDS011;5577;42.706;23.160;2022-12-29T18:03:46;57.43;;;39.27;;
11048;SDS011;5577;42.706;23.160;2022-12-29T18:06:31;60.00;;;40.87;;
11048;SDS011;5577;42.706;23.160;2022-12-29T18:09:15;90.37;;;62.83;;
11048;SDS011;5577;42.706;23.160;2022-12-29T18:12:01;145.90;;;78.47;;
11048;SDS011;5577;42.706;23.160;2022-12-29T18:14:46;93.87;;;58.33;;
11048;SDS011;5577;42.706;23.160;2022-12-29T18:17:30;103.80;;;61.07;;
11048;SDS011;5577;42.706;23.160;2022-12-29T18:20:14;83.33;;;51.80;;
11048;SDS011;5577;42.706;23.160;2022-12-29T18:22:59;65.37;;;43.47;;
11048;SDS011;5577;42.706;23.160;2022-12-29T18:28:48;59.23;;;38.60;;
11048;SDS011;5577;42.706;23.160;2022-12-29T18:31:33;57.60;;;37.47;;
11048;SDS011;5577;42.706;23.160;2022-12-29T18:34:19;107.10;;;69.43;;
11048;SDS011;5577;42.706;23.160;2022-12-29T18:37:02;72.83;;;48.60;;
11048;SDS011;5577;42.706;23.160;2022-12-29T18:39:47;63.37;;;42.70;;
11048;SDS011;5577;42.706;23.160;2022-12-29T18:42:31;66.03;;;43.57;;
11048;SDS011;5577;42.706;23.160;2022-12-29T18:45:16;61.57;;;41.00;;
11048;SDS011;5577;42.706;23.160;2022-12-29T18:48:02;57.97;;;40.00;;
11048;SDS011;5577;42.706;23.160;2022-12-29T18:50:47;64.37;;;39.87;;
11048;SDS011;5577;42.706;23.160;2022-12-29T18:53:33;62.67;;;41.27;;
11048;SDS011;5577;42.706;23.160;2022-12-29T18:56:20;67.83;;;45.50;;
11048;SDS011;5577;42.706;23.160;2022-12-29T18:59:05;109.70;;;63.87;;
11048;SDS011;5577;42.706;23.160;2022-12-29T19:01:49;93.10;;;57.10;;
11048;SDS011;5577;42.706;23.160;2022-12-29T19:04:34;93.60;;;55.60;;
11048;SDS011;5577;42.706;23.160;2022-12-29T19:07:17;82.00;;;54.53;;
11048;SDS011;5577;42.706;23.160;2022-12-29T19:10:01;73.77;;;48.87;;